Portada
METAR-TAF:

METAR-TAF

Aeropuertos :

Aeropuerto de Bilbao

Bilbao, España

latitud: 43-18N, longitud: 002-56W, altitud: 42 m

Observación

El informe se hizo hace 22 minutos, a las 10:30 UTC
Viento 6 kt del norte-noreste, variando entre norte y este-noreste
Temperatura 22°C
Humedad 73%
Presión 1017 hPa
Visibilidad 10 km o más
Escasas nubes a una altura de 2000 ft
Cielo nuboso a una altura de 3000 ft

METAR: LEBB 141030Z 02006KT 350V060 9999 FEW020 BKN030 22/17 Q1017 NOSIG

Hora: 12:52 (10:52 UTC)

Pronóstico

El informe se hizo hace 5 horas y 52 minutos, a las 05:00 UTC
Pronóstico válido del 14 a las 06 UTC al 15 a las 06 UTC
Viento 5 kt con dirección variable
Visibilidad 10 km o más
Nubes dispersas a una altura de 3000 ft
Temporalmente
del 14 a las 12 UTC al 14 a las 18 UTC
Viento 8 kt del norte-noreste

TAF: LEBB 140500Z 1406/1506 VRB05KT 9999 SCT030 TX26/1412Z TN15/1406Z TEMPO 1412/1418 03008KT

Observaciones y pronósticos meteorológicos de más de 4000 aeropuertos (mensajes METAR y TAF).

Los puntos amarillos y rojos representan las estaciones disponibles.

Ponga el ratón en el punto deseado para ver el nombre de la estación.

Haga clic para ver las observaciones y los pronósticos meteorológicos.

Para cambiar el mapa : haga clic en los botones verdes con una cruz de color negro para hacer un zoom, en el botón verde con un guión para alejar o en las flechas verdes para mapas adyacentes.


METAR-TAF: